Terminal Aerodrome Forecast
Issued by NWS Wilmington, NC

Current Version | Previous Version | Graphics & Text | Print | Product List | Glossary Off
Versions: 1 2 3 4 5 6 7 8 9 10 11 12 13 14 15

000
FTUS42 KILM 232300
TAFFLO
TAF
KFLO 232330Z 2400/2424 03012KT P6SM -RA SCT040 BKN110
     FM241200 02012KT 6SM -RA BKN015 OVC035=

USA.gov is the U.S. government's official web portal to all federal, state and local government web resources and services.